Time;durP1;ratioP1;P1;durP2;ratioP2;P2;SDS_P1;SDS_P2;PMS_P1;PMS_P2;Temp;Humidity;BMP_temperature;BMP_pressure;BME280_temperature;BME280_humidity;BME280_pressure;Samples;Min_cycle;Max_cycle;Signal;HPM_P1;HPM_P2
2022/02/02 00:00:38;;;;;;;11.65;5.72;;;;;;;1.12;100.00;99323.03;5073278;28;20444;-71
2022/02/02 00:03:10;;;;;;;12.65;6.75;;;;;;;1.06;100.00;99330.28;5074171;28;20032;-71
2022/02/02 00:05:50;;;;;;;13.88;6.22;;;;;;;0.98;100.00;99319.22;5073266;28;20067;-70
2022/02/02 00:08:24;;;;;;;11.23;6.03;;;;;;;0.86;100.00;99316.09;5073401;28;20408;-71
2022/02/02 00:11:40;;;;;;;15.23;7.53;;;;;;;0.84;100.00;99306.56;5073001;28;20093;-72
2022/02/02 00:14:18;;;;;;;16.20;7.20;;;;;;;0.84;100.00;99304.78;5073126;28;20068;-71
2022/02/02 00:16:53;;;;;;;21.02;7.68;;;;;;;0.77;100.00;99298.06;5073371;28;20041;-71
2022/02/02 00:19:36;;;;;;;14.27;6.60;;;;;;;0.76;100.00;99300.72;5072562;28;20456;-70
2022/02/02 00:22:09;;;;;;;16.70;7.88;;;;;;;0.76;100.00;99295.47;5073641;28;20047;-71
2022/02/02 00:24:52;;;;;;;;;;;;;;;0.79;100.00;99303.25;5073817;28;20040;-78
2022/02/02 00:27:22;;;;;;;14.23;6.97;;;;;;;0.79;100.00;99298.00;5073602;28;19920;-71
2022/02/02 00:29:57;;;;;;;14.50;6.82;;;;;;;0.71;100.00;99297.41;5072893;28;20040;-71
2022/02/02 00:32:41;;;;;;;15.98;7.10;;;;;;;0.73;100.00;99295.59;5073621;28;20054;-71
2022/02/02 00:35:13;;;;;;;17.38;7.40;;;;;;;0.76;100.00;99295.47;5073201;28;20277;-71
2022/02/02 00:37:41;;;;;;;17.25;8.10;;;;;;;0.77;100.00;99289.31;5072750;28;20063;-72
2022/02/02 00:40:10;;;;;;;17.92;8.60;;;;;;;0.85;100.00;99287.28;5073276;28;20041;-71
2022/02/02 00:42:39;;;;;;;18.52;7.97;;;;;;;0.91;100.00;99279.19;5072076;28;20059;-75
2022/02/02 00:45:08;;;;;;;18.75;8.32;;;;;;;0.88;100.00;99254.81;5073220;28;20068;-71
2022/02/02 00:47:39;;;;;;;15.40;7.85;;;;;;;0.82;100.00;99266.38;5072222;28;20053;-70
2022/02/02 00:50:08;;;;;;;14.45;7.60;;;;;;;0.71;100.00;99258.03;5073187;28;20102;-71
2022/02/02 00:52:38;;;;;;;15.10;7.85;;;;;;;0.75;100.00;99257.88;5073127;28;20048;-71
2022/02/02 00:55:07;;;;;;;16.92;7.70;;;;;;;0.73;100.00;99250.97;5072706;28;20045;-71
2022/02/02 00:57:35;;;;;;;16.38;6.63;;;;;;;0.72;100.00;99252.75;5073117;28;20042;-71
2022/02/02 01:00:06;;;;;;;15.98;7.47;;;;;;;0.74;100.00;99244.81;5072750;28;20051;-71
2022/02/02 01:02:34;;;;;;;15.20;8.15;;;;;;;0.67;100.00;99238.06;5072934;28;20375;-71
2022/02/02 01:05:03;;;;;;;17.02;8.52;;;;;;;0.67;100.00;99243.31;5072892;28;20133;-71
2022/02/02 01:07:45;;;;;;;17.83;8.70;;;;;;;0.62;100.00;99246.09;5072998;28;20538;-71
2022/02/02 01:10:21;;;;;;;15.70;8.45;;;;;;;0.67;100.00;99243.31;5073189;28;20060;-71
2022/02/02 01:13:03;;;;;;;15.27;7.55;;;;;;;0.65;100.00;99234.63;5072471;28;20497;-71
2022/02/02 01:21:02;;;;;;;13.60;6.45;;;;;;;0.69;100.00;99215.25;5065844;28;20053;-71
2022/02/02 01:29:04;;;;;;;12.02;5.82;;;;;;;0.67;100.00;99198.69;5076299;28;20401;-71
2022/02/02 01:31:36;;;;;;;14.95;7.35;;;;;;;0.71;100.00;99189.81;5076726;28;20048;-71
2022/02/02 01:34:05;;;;;;;10.43;5.95;;;;;;;0.64;100.00;99175.19;5076305;28;20063;-71
2022/02/02 01:36:38;;;;;;;13.98;5.78;;;;;;;0.72;100.00;99178.38;5074782;28;20052;-70
2022/02/02 01:39:10;;;;;;;10.73;5.32;;;;;;;0.62;100.00;99177.03;5076170;28;20123;-71
2022/02/02 01:41:42;;;;;;;12.63;6.43;;;;;;;0.59;100.00;99182.38;5076165;28;20456;-69
2022/02/02 01:44:18;;;;;;;13.05;5.90;;;;;;;0.52;100.00;99177.34;5076535;28;20486;-70
2022/02/02 01:46:48;;;;;;;13.98;6.13;;;;;;;0.59;100.00;99166.66;5076175;28;20043;-70
2022/02/02 01:52:35;;;;;;;14.85;6.63;;;;;;;0.52;100.00;99166.00;5074617;28;20078;-71
2022/02/02 01:55:07;;;;;;;12.60;6.32;;;;;;;0.59;100.00;99158.78;5075654;28;20045;-71
2022/02/02 02:00:20;;;;;;;11.40;6.22;;;;;;;0.61;100.00;99151.69;5074486;28;20145;-71
2022/02/02 02:02:48;;;;;;;12.10;6.57;;;;;;;0.61;100.00;99152.53;5075772;28;20051;-71
2022/02/02 02:05:17;;;;;;;13.05;6.53;;;;;;;0.57;100.00;99137.81;5075142;28;20442;-70
2022/02/02 02:07:47;;;;;;;13.85;6.63;;;;;;;0.67;100.00;99130.44;5075784;28;20045;-72
2022/02/02 02:10:15;;;;;;;12.63;7.15;;;;;;;0.67;100.00;99133.06;5075643;28;20040;-71
2022/02/02 02:12:52;;;;;;;15.90;7.65;;;;;;;0.67;100.00;99133.06;5075750;28;20404;-72
2022/02/02 02:15:26;;;;;;;13.27;6.93;;;;;;;0.66;100.00;99126.97;5075837;28;20394;-71
2022/02/02 02:17:54;;;;;;;;;;;;;;;0.67;100.00;99133.06;5075988;28;20051;-71
2022/02/02 02:20:22;;;;;;;12.82;6.85;;;;;;;0.70;100.00;99122.47;5075606;28;20423;-71
2022/02/02 02:22:53;;;;;;;15.20;8.30;;;;;;;0.71;100.00;99121.56;5075369;28;20075;-71
2022/02/02 02:25:24;;;;;;;14.95;7.30;;;;;;;0.80;100.00;99118.59;5074521;28;20127;-71
2022/02/02 02:28:01;;;;;;;16.75;8.15;;;;;;;0.84;100.00;99118.38;5075239;28;20044;-71
2022/02/02 02:30:42;;;;;;;14.27;7.32;;;;;;;0.78;100.00;99117.78;5075644;28;20051;-71
2022/02/02 02:33:38;;;;;;;16.95;7.97;;;;;;;0.82;100.00;99116.75;5074587;28;20046;-71
2022/02/02 02:36:37;;;;;;;15.18;7.90;;;;;;;0.93;100.00;99108.44;5074688;28;20071;-71
2022/02/02 02:55:53;;;;;;;14.00;8.25;;;;;;;1.00;100.00;99095.03;5075130;28;20048;-70
2022/02/02 02:58:38;;;;;;;16.60;8.05;;;;;;;0.99;100.00;99106.44;5074752;28;20468;-71
2022/02/02 03:01:26;;;;;;;17.15;8.43;;;;;;;0.98;100.00;99102.13;5074598;28;20539;-71
2022/02/02 03:51:27;;;;;;;14.38;7.20;;;;;;;1.32;100.00;99083.22;5104265;28;20059;-71
2022/02/02 03:56:57;;;;;;;17.73;7.78;;;;;;;1.30;100.00;99076.31;5131430;28;20036;-70
2022/02/02 03:59:38;;;;;;;15.90;7.82;;;;;;;1.37;100.00;99072.53;5131453;28;20044;-70
2022/02/02 04:02:16;;;;;;;17.75;8.00;;;;;;;1.36;100.00;99070.81;5131028;28;20496;-70
2022/02/02 04:05:19;;;;;;;14.40;7.00;;;;;;;1.41;100.00;99074.09;5131258;28;20043;-70
2022/02/02 04:07:49;;;;;;;12.40;6.72;;;;;;;1.48;100.00;99075.56;5131041;28;20039;-70
2022/02/02 04:10:18;;;;;;;;;;;;;;;1.41;100.00;99068.84;5131628;28;20089;-71
2022/02/02 04:12:55;;;;;;;11.73;6.25;;;;;;;1.33;100.00;99070.94;5130958;28;19926;-71
2022/02/02 04:38:35;;;;;;;11.68;5.13;;;;;;;1.45;100.00;99054.69;5066497;28;20110;-71
2022/02/02 04:52:38;;;;;;;5.20;2.38;;;;;;;1.42;100.00;99025.88;5085160;28;20489;-71
2022/02/02 04:55:20;;;;;;;9.48;4.80;;;;;;;1.42;100.00;99028.50;5116391;28;20395;-71
2022/02/02 05:01:27;;;;;;;6.28;3.38;;;;;;;1.54;100.00;99017.47;5013831;28;20052;-70
2022/02/02 05:04:19;;;;;;;7.95;4.32;;;;;;;1.47;100.00;99016.03;5116672;28;20047;-71
2022/02/02 05:06:51;;;;;;;7.65;3.72;;;;;;;1.47;100.00;99010.78;5116330;28;20428;-70
2022/02/02 05:09:32;;;;;;;11.63;5.63;;;;;;;1.37;100.00;99010.31;5115766;28;20079;-71
2022/02/02 05:20:55;;;;;;;9.68;4.97;;;;;;;1.68;100.00;99036.13;5116173;28;20040;-70
2022/02/02 05:43:21;;;;;;;10.07;4.80;;;;;;;1.96;100.00;99030.53;5115711;28;20051;-71
2022/02/02 05:48:41;;;;;;;9.48;4.78;;;;;;;2.09;100.00;99030.81;5115191;28;20044;-71
2022/02/02 05:51:22;;;;;;;7.63;4.35;;;;;;;2.10;100.00;99027.25;5115184;28;20122;-72
2022/02/02 05:53:50;;;;;;;7.57;4.43;;;;;;;2.10;100.00;99027.25;5114998;28;20067;-70
2022/02/02 05:56:19;;;;;;;7.47;3.80;;;;;;;2.20;100.00;99033.81;5114003;28;20040;-71
2022/02/02 05:58:48;;;;;;;6.28;3.45;;;;;;;2.34;100.00;99043.72;5115132;28;20069;-71
2022/02/02 06:01:17;;;;;;;8.52;3.92;;;;;;;2.29;100.00;99043.91;5115171;28;20054;-71
2022/02/02 06:03:54;;;;;;;8.63;3.88;;;;;;;2.36;100.00;99041.88;5115425;28;20086;-71
2022/02/02 06:06:25;;;;;;;4.13;2.20;;;;;;;2.45;100.00;99037.97;5114717;28;20036;-70
2022/02/02 06:08:55;;;;;;;7.15;3.83;;;;;;;2.47;100.00;99051.91;5114947;28;20043;-70
2022/02/02 06:11:24;;;;;;;7.65;3.80;;;;;;;2.50;100.00;99030.69;5114763;28;20040;-71
2022/02/02 06:13:57;;;;;;;5.47;3.10;;;;;;;2.67;100.00;99040.44;5114745;28;20044;-71
2022/02/02 06:16:29;;;;;;;5.80;3.22;;;;;;;2.67;100.00;99033.41;5114624;28;20384;-71
2022/02/02 06:19:01;;;;;;;6.95;3.50;;;;;;;2.68;100.00;99027.19;5114821;28;20039;-71
2022/02/02 06:21:31;;;;;;;5.45;3.33;;;;;;;2.74;100.00;99042.72;5114737;28;20130;-69
2022/02/02 06:24:07;;;;;;;7.45;2.67;;;;;;;3.07;100.00;99023.56;5114748;28;20131;-71
2022/02/02 06:26:36;;;;;;;4.82;2.55;;;;;;;3.13;100.00;99026.75;5096582;28;20051;-70
2022/02/02 06:29:06;;;;;;;4.63;2.80;;;;;;;2.91;100.00;99025.25;5113979;28;20122;-71
2022/02/02 06:31:36;;;;;;;4.05;1.83;;;;;;;2.87;100.00;99041.19;5114595;28;20043;-71
2022/02/02 06:34:08;;;;;;;7.05;2.70;;;;;;;2.78;100.00;99039.00;5114067;28;20047;-72
2022/02/02 06:36:38;;;;;;;7.10;3.33;;;;;;;2.77;100.00;99034.66;5114466;28;20040;-71
2022/02/02 06:39:09;;;;;;;7.47;3.00;;;;;;;2.88;100.00;99037.63;5114460;28;20460;-72
2022/02/02 06:41:40;;;;;;;7.18;2.70;;;;;;;2.92;100.00;99054.16;5114472;28;20156;-71
2022/02/02 06:44:08;;;;;;;3.95;2.20;;;;;;;2.94;100.00;99061.97;5114150;28;20067;-72
2022/02/02 06:46:39;;;;;;;4.47;2.03;;;;;;;3.15;100.00;99058.31;5114129;28;20092;-71
2022/02/02 06:49:12;;;;;;;5.55;2.80;;;;;;;3.22;100.00;99040.41;5114084;28;20400;-71
2022/02/02 06:51:48;;;;;;;3.60;2.00;;;;;;;3.22;100.00;99050.97;5113701;28;20519;-71
2022/02/02 06:54:25;;;;;;;5.97;2.53;;;;;;;3.03;100.00;99059.75;5113895;28;20056;-71
2022/02/02 06:57:01;;;;;;;6.00;2.53;;;;;;;3.01;100.00;99063.41;5114123;28;20078;-72
2022/02/02 06:59:49;;;;;;;7.22;2.97;;;;;;;2.99;100.00;99086.31;5113555;28;20043;-70
2022/02/02 07:02:37;;;;;;;7.03;3.28;;;;;;;2.91;100.00;99081.44;5113636;28;20118;-72
2022/02/02 07:05:26;;;;;;;7.05;3.58;;;;;;;2.94;100.00;99098.84;5113680;28;20051;-71
2022/02/02 07:08:27;;;;;;;5.95;2.65;;;;;;;3.09;100.00;99092.88;5113507;28;20043;-71
2022/02/02 07:11:10;;;;;;;4.90;2.17;;;;;;;3.23;100.00;99090.41;5113451;28;20050;-72
2022/02/02 07:13:56;;;;;;;5.28;2.83;;;;;;;3.24;100.00;99073.66;5114094;28;20071;-71
2022/02/02 07:16:39;;;;;;;4.32;2.40;;;;;;;3.57;100.00;99068.53;5113365;28;20092;-71
2022/02/02 07:19:22;;;;;;;5.30;2.63;;;;;;;3.50;100.00;99061.00;5113725;28;20561;-70
2022/02/02 07:27:43;;;;;;;5.57;2.60;;;;;;;3.18;100.00;99071.31;5152217;27;20374;-71
2022/02/02 07:30:25;;;;;;;7.32;3.65;;;;;;;3.07;100.00;99073.63;5151696;27;20445;-72
2022/02/02 07:33:06;;;;;;;7.28;3.47;;;;;;;3.05;100.00;99078.97;5152364;27;20088;-71
2022/02/02 07:35:51;;;;;;;8.23;3.70;;;;;;;3.06;100.00;99088.59;5152164;27;20054;-72
2022/02/02 07:38:25;;;;;;;7.20;3.80;;;;;;;3.12;100.00;99084.81;5151813;27;20096;-72
2022/02/02 07:41:04;;;;;;;6.82;3.50;;;;;;;3.10;100.00;99090.16;5152234;27;20464;-71
2022/02/02 07:43:38;;;;;;;5.97;2.90;;;;;;;3.19;100.00;99098.56;5151777;27;20039;-71
2022/02/02 07:46:07;;;;;;;;;;;;;;;3.29;100.00;99105.94;5152298;27;20043;-71
2022/02/02 07:48:38;;;;;;;8.13;3.10;;;;;;;3.35;100.00;99100.34;5151594;27;20001;-72
2022/02/02 07:51:08;;;;;;;5.15;2.40;;;;;;;3.50;100.00;99090.84;5151624;27;20499;-71
2022/02/02 07:53:41;;;;;;;6.30;2.30;;;;;;;3.57;100.00;99107.19;5151672;27;20039;-71
2022/02/02 07:56:30;;;;;;;5.35;2.22;;;;;;;3.70;100.00;99113.56;5132883;27;20046;-71
2022/02/02 07:59:13;;;;;;;6.05;2.08;;;;;;;3.87;100.00;99105.66;5133271;27;20047;-71
2022/02/02 08:01:43;;;;;;;5.72;2.70;;;;;;;4.00;100.00;99103.25;5151765;27;20043;-71
2022/02/02 08:04:19;;;;;;;3.58;2.03;;;;;;;4.09;100.00;99107.19;5151177;27;20043;-71
2022/02/02 08:06:52;;;;;;;7.93;2.88;;;;;;;4.23;100.00;99110.81;5151694;27;20113;-70
2022/02/02 08:09:30;;;;;;;4.28;1.98;;;;;;;4.28;100.00;99118.50;5151072;27;20092;-71
2022/02/02 08:11:59;;;;;;;3.15;1.83;;;;;;;4.33;100.00;99108.53;5151344;27;20088;-71
2022/02/02 08:14:35;;;;;;;5.85;2.53;;;;;;;4.36;100.00;99105.75;5151298;27;20107;-71
2022/02/02 08:17:04;;;;;;;6.13;2.28;;;;;;;4.39;100.00;99110.88;5151613;27;20042;-71
2022/02/02 08:19:33;;;;;;;5.75;2.33;;;;;;;4.40;100.00;99107.28;5150946;27;20380;-71
2022/02/02 08:22:02;;;;;;;3.30;1.80;;;;;;;4.41;100.00;99122.19;5151098;27;20130;-72
2022/02/02 08:24:30;;;;;;;6.70;2.47;;;;;;;4.42;100.00;99115.13;5151030;27;20042;-71
2022/02/02 08:26:58;;;;;;;5.65;2.50;;;;;;;4.43;100.00;99112.41;5150670;27;20115;-70
2022/02/02 08:29:27;;;;;;;6.15;2.22;;;;;;;4.39;100.00;99110.88;5150936;27;20099;-72
2022/02/02 08:31:57;;;;;;;3.17;1.58;;;;;;;4.45;100.00;99115.84;5150807;27;20402;-72
2022/02/02 08:34:26;;;;;;;4.35;2.33;;;;;;;4.41;100.00;99108.13;5150814;27;20483;-72
2022/02/02 08:36:56;;;;;;;6.72;2.65;;;;;;;4.35;100.00;99109.34;5148120;27;20043;-71
2022/02/02 08:39:41;;;;;;;8.05;2.85;;;;;;;4.41;100.00;99097.59;5136316;27;20043;-72
2022/02/02 08:42:14;;;;;;;4.82;2.08;;;;;;;4.40;100.00;99102.00;5137242;27;20121;-71
2022/02/02 08:44:48;;;;;;;4.65;2.05;;;;;;;4.48;100.00;99107.75;5137202;27;20099;-72
2022/02/02 08:47:21;;;;;;;6.38;2.90;;;;;;;4.46;100.00;99093.78;5136750;27;20035;-71
2022/02/02 08:49:54;;;;;;;;;;;;;;;4.40;100.00;99096.72;5137447;27;20039;-71
2022/02/02 08:52:32;;;;;;;4.85;2.22;;;;;;;4.34;100.00;99075.91;5136609;27;19923;-72
2022/02/02 08:55:35;;;;;;;4.78;2.38;;;;;;;4.30;100.00;99079.66;5136300;27;20043;-72
2022/02/02 08:58:20;;;;;;;4.22;2.42;;;;;;;4.30;100.00;99074.41;5118859;27;20047;-72
2022/02/02 09:00:51;;;;;;;4.88;1.95;;;;;;;4.24;100.00;99077.34;5137012;27;20062;-70
2022/02/02 09:06:07;;;;;;;5.22;2.30;;;;;;;4.35;100.00;99093.50;5118610;27;20093;-70
2022/02/02 09:08:35;;;;;;;6.70;2.17;;;;;;;4.37;100.00;99094.25;5136164;27;20045;-71
2022/02/02 09:25:10;;;;;;;4.85;2.28;;;;;;;4.68;100.00;99125.16;5135900;27;20058;-71
2022/02/02 09:36:01;;;;;;;4.45;1.50;;;;;;;4.89;100.00;99094.91;5117788;27;20050;-70
2022/02/02 09:38:29;;;;;;;7.25;2.20;;;;;;;5.01;100.00;99109.22;5135690;27;20043;-71
2022/02/02 09:43:58;;;;;;;3.42;1.70;;;;;;;5.08;100.00;99107.97;5072521;28;20045;-71
2022/02/02 09:46:32;;;;;;;4.53;1.80;;;;;;;5.17;100.00;99110.09;5122476;27;20059;-71
2022/02/02 09:49:05;;;;;;;6.38;1.63;;;;;;;5.26;100.00;99118.44;5116503;28;20556;-71
2022/02/02 09:51:39;;;;;;;4.32;1.60;;;;;;;5.36;100.00;99115.19;5135635;27;20043;-71
2022/02/02 09:54:13;;;;;;;5.00;1.67;;;;;;;5.40;100.00;99110.56;5135874;27;20066;-71
2022/02/02 10:05:47;;;;;;;2.30;0.93;;;;;;;5.77;100.00;99098.72;5134862;27;20042;-71
2022/02/02 10:09:10;;;;;;;4.28;1.60;;;;;;;5.88;100.00;99092.78;5135474;27;20050;-71
2022/02/02 10:14:49;;;;;;;4.82;1.63;;;;;;;5.95;100.00;99096.81;5136534;27;20043;-75
2022/02/02 10:17:18;;;;;;;5.28;1.48;;;;;;;6.00;100.00;99092.97;5135391;27;20043;-70
2022/02/02 10:19:46;;;;;;;6.28;2.08;;;;;;;6.07;100.00;99090.78;5135104;27;20035;-70
2022/02/02 10:22:23;;;;;;;2.75;1.23;;;;;;;6.08;100.00;99087.22;5135209;27;20050;-72
2022/02/02 10:24:59;;;;;;;9.73;1.52;;;;;;;6.13;100.00;99087.78;5134987;27;20391;-72
2022/02/02 10:27:32;;;;;;;3.80;1.50;;;;;;;6.18;100.00;99109.53;5134912;27;20484;-72
2022/02/02 10:30:19;;;;;;;5.32;1.15;;;;;;;6.03;100.00;99103.34;5136275;27;20476;-71
2022/02/02 10:32:49;;;;;;;5.57;1.25;;;;;;;6.00;100.00;99100.91;5134451;27;20437;-71
2022/02/02 10:35:35;;;;;;;3.58;1.30;;;;;;;6.04;100.00;99098.91;5135005;27;20035;-71
2022/02/02 10:38:24;;;;;;;4.22;1.50;;;;;;;6.17;100.00;99105.16;5134999;27;20129;-71
2022/02/02 10:41:02;;;;;;;5.47;1.45;;;;;;;6.22;100.00;99126.94;5135077;27;20065;-72
2022/02/02 10:43:35;;;;;;;5.72;1.67;;;;;;;6.28;100.00;99108.03;5134566;27;20122;-72
2022/02/02 10:46:16;;;;;;;4.35;1.30;;;;;;;6.38;100.00;99115.44;5134749;27;20035;-70
2022/02/02 10:48:49;;;;;;;3.83;1.42;;;;;;;6.41;100.00;99123.19;5134366;27;20095;-70
2022/02/02 10:51:32;;;;;;;4.72;1.50;;;;;;;6.43;100.00;99113.34;5134737;27;20043;-70
2022/02/02 10:54:18;;;;;;;6.88;1.60;;;;;;;6.46;100.00;99123.72;5134731;27;20395;-71
2022/02/02 10:56:54;;;;;;;5.78;1.55;;;;;;;6.66;100.00;99133.09;5134282;27;20058;-71
2022/02/02 10:59:33;;;;;;;4.88;1.48;;;;;;;6.69;100.00;99131.13;5134123;27;20038;-71
2022/02/02 11:07:36;;;;;;;4.40;1.17;;;;;;;7.22;100.00;99142.81;5115773;27;20075;-71
2022/02/02 11:10:06;;;;;;;7.15;1.80;;;;;;;7.20;100.00;99143.84;5133989;27;20126;-71
2022/02/02 11:12:39;;;;;;;6.82;1.60;;;;;;;7.26;100.00;99149.63;5134124;27;20518;-72
2022/02/02 11:15:17;;;;;;;9.68;1.63;;;;;;;7.29;100.00;99136.16;5134143;27;20043;-71
2022/02/02 11:17:53;;;;;;;6.97;1.58;;;;;;;7.30;100.00;99131.69;5134444;27;20460;-71
2022/02/02 11:20:22;;;;;;;4.25;1.42;;;;;;;7.27;100.00;99138.06;5133960;27;20138;-71
2022/02/02 11:22:54;;;;;;;5.70;1.30;;;;;;;7.28;100.00;99134.47;5133921;27;20126;-71
2022/02/02 11:25:36;;;;;;;5.68;1.90;;;;;;;7.21;100.00;99127.84;5134132;28;20047;-71
2022/02/02 11:28:22;;;;;;;2.28;1.00;;;;;;;7.32;100.00;99135.94;5134107;28;20043;-71
2022/02/02 11:30:51;;;;;;;4.47;1.63;;;;;;;7.18;100.00;99150.13;5133683;28;20050;-71
2022/02/02 11:33:24;;;;;;;6.20;1.50;;;;;;;7.18;100.00;99133.34;5133893;28;20131;-71
2022/02/02 11:35:57;;;;;;;5.55;1.55;;;;;;;7.24;100.00;99116.19;5133724;28;20092;-71
2022/02/02 11:38:41;;;;;;;7.57;1.65;;;;;;;7.45;100.00;99120.13;5133493;28;20043;-72
2022/02/02 11:41:18;;;;;;;6.57;1.33;;;;;;;7.36;100.00;99107.44;5133822;28;20084;-71
2022/02/02 11:44:00;;;;;;;4.35;1.30;;;;;;;7.48;100.00;99138.47;5133668;28;20043;-71
2022/02/02 11:46:51;;;;;;;3.85;1.40;;;;;;;7.49;100.00;99123.41;5133666;28;20533;-71
2022/02/02 11:49:31;;;;;;;5.25;1.40;;;;;;;7.46;100.00;99133.28;5133678;28;20073;-71
2022/02/02 11:52:03;;;;;;;5.18;1.35;;;;;;;7.53;100.00;99120.47;5133964;28;20043;-70
2022/02/02 11:54:52;;;;;;;1.40;0.85;;;;;;;7.44;100.00;99108.66;5133670;28;20043;-77
2022/02/02 11:57:24;;;;;;;4.07;1.10;;;;;;;7.65;100.00;99122.31;5133969;28;20088;-71
2022/02/02 12:00:18;;;;;;;7.30;1.65;;;;;;;7.78;100.00;99124.13;5133477;28;20055;-70
2022/02/02 12:03:12;;;;;;;8.88;2.00;;;;;;;7.77;100.00;99119.78;5133587;28;20445;-71
2022/02/02 12:06:03;;;;;;;5.82;1.52;;;;;;;8.05;100.00;99119.63;5133455;28;20043;-72
2022/02/02 12:08:47;;;;;;;10.05;1.75;;;;;;;8.03;100.00;99126.88;5133055;28;20039;-72
2022/02/02 12:11:41;;;;;;;6.78;1.70;;;;;;;8.05;100.00;99124.94;5133710;28;20484;-71
2022/02/02 12:48:06;;;;;;;5.38;1.27;;;;;;;6.82;100.00;99174.47;5136745;27;20043;-70
2022/02/02 12:54:26;;;;;;;3.88;1.10;;;;;;;6.06;100.00;99215.31;5118732;27;20055;-70
2022/02/02 12:56:54;;;;;;;2.22;0.95;;;;;;;5.54;100.00;99211.16;5136486;27;20043;-71
2022/02/02 12:59:55;;;;;;;5.60;0.95;;;;;;;5.39;100.00;99222.59;5118613;27;20046;-71
2022/02/02 13:02:24;;;;;;;3.65;1.30;;;;;;;5.36;100.00;99198.97;5136839;27;20419;-71
2022/02/02 13:04:55;;;;;;;3.75;1.30;;;;;;;5.48;100.00;99206.22;5136396;27;20043;-71
2022/02/02 13:07:32;;;;;;;5.13;1.27;;;;;;;5.61;100.00;99203.75;5136618;27;20039;-71
2022/02/02 13:10:05;;;;;;;3.35;1.27;;;;;;;5.71;100.00;99218.16;5136379;27;20039;-72
2022/02/02 13:12:51;;;;;;;4.72;1.27;;;;;;;5.75;100.00;99223.19;5135997;27;20046;-72
2022/02/02 13:15:32;;;;;;;3.13;1.30;;;;;;;5.88;100.00;99227.75;5136645;27;20039;-71
2022/02/02 13:18:09;;;;;;;4.15;1.38;;;;;;;5.95;100.00;99245.03;5136150;27;20126;-71
2022/02/02 13:23:40;;;;;;;7.78;1.60;;;;;;;5.89;100.00;99256.81;5128254;27;20051;-71
2022/02/02 13:26:19;;;;;;;6.82;1.60;;;;;;;5.78;100.00;99256.53;5136093;27;20081;-71
2022/02/02 13:28:56;;;;;;;4.53;1.55;;;;;;;5.65;100.00;99251.09;5135814;27;20050;-71
2022/02/02 13:31:43;;;;;;;7.20;1.80;;;;;;;5.59;100.00;99235.56;5136261;27;20088;-71
2022/02/02 13:34:23;;;;;;;4.43;1.90;;;;;;;5.69;100.00;99227.94;5135840;27;20055;-70
2022/02/02 13:37:04;;;;;;;6.30;1.85;;;;;;;5.84;100.00;99220.94;5135827;27;20127;-72
2022/02/02 13:42:58;;;;;;;4.23;1.97;;;;;;;5.90;100.00;99223.25;5135971;27;20544;-71
2022/02/02 13:45:47;;;;;;;5.10;1.75;;;;;;;5.99;100.00;99234.22;5135590;27;20418;-72
2022/02/02 13:54:05;;;;;;;6.18;1.58;;;;;;;6.23;100.00;99234.56;5135663;27;20454;-71
2022/02/02 14:02:17;;;;;;;8.10;1.90;;;;;;;6.68;100.00;99245.19;5113757;27;20062;-71
2022/02/02 14:05:05;;;;;;;4.70;1.73;;;;;;;6.83;100.00;99246.88;5135296;27;20039;-73
2022/02/02 14:07:48;;;;;;;4.07;1.50;;;;;;;6.95;100.00;99279.75;5151631;27;20139;-71
2022/02/02 14:10:33;;;;;;;5.00;1.58;;;;;;;6.83;100.00;99252.19;5135458;27;20047;-71
2022/02/02 14:33:42;;;;;;;4.93;0.90;;;;;;;4.17;100.00;99321.44;5091952;28;20040;-71
2022/02/02 14:36:12;;;;;;;2.97;1.38;;;;;;;4.19;100.00;99309.03;5123304;27;20055;-70
2022/02/02 14:38:46;;;;;;;4.13;1.30;;;;;;;4.19;100.00;99307.25;5134973;27;20085;-71
2022/02/02 14:41:21;;;;;;;4.43;1.20;;;;;;;4.20;100.00;99305.44;5134829;27;20039;-71
2022/02/02 14:43:57;;;;;;;3.40;1.20;;;;;;;4.18;100.00;99321.38;5134714;27;20095;-72
2022/02/02 14:46:35;;;;;;;4.32;1.45;;;;;;;4.40;100.00;99323.81;5134861;27;20088;-71
2022/02/02 14:49:07;;;;;;;3.85;1.30;;;;;;;4.52;100.00;99323.19;5134050;27;20043;-72
2022/02/02 14:51:50;;;;;;;3.17;1.58;;;;;;;4.55;100.00;99315.13;5134732;27;20066;-71
2022/02/02 14:54:44;;;;;;;2.60;1.30;;;;;;;4.58;100.00;99328.16;5134604;27;20549;-72
2022/02/02 15:26:17;;;;;;;8.48;1.90;;;;;;;5.17;100.00;99348.03;5134074;28;20425;-71
2022/02/02 15:29:04;;;;;;;5.90;1.88;;;;;;;5.01;100.00;99357.66;5133651;28;20043;-71
2022/02/02 15:31:34;;;;;;;5.50;1.73;;;;;;;5.01;100.00;99357.66;5134324;28;20036;-71
2022/02/02 15:34:30;;;;;;;6.13;1.80;;;;;;;5.19;100.00;99361.16;5134033;28;20395;-71
2022/02/02 15:37:26;;;;;;;4.90;1.58;;;;;;;5.15;100.00;99344.59;5133670;28;20393;-71
2022/02/02 15:40:07;;;;;;;4.40;1.80;;;;;;;5.16;100.00;99356.88;5134442;28;20047;-72
2022/02/02 15:43:03;;;;;;;5.40;1.70;;;;;;;5.16;100.00;99364.81;5133854;28;20039;-71
2022/02/02 16:04:57;;;;;;;6.05;2.05;;;;;;;5.21;100.00;99374.28;5137666;27;20039;-73
2022/02/02 16:07:28;;;;;;;4.40;1.60;;;;;;;5.23;100.00;99393.59;5137903;27;20053;-71
2022/02/02 16:10:06;;;;;;;3.50;1.80;;;;;;;5.17;100.00;99379.75;5137481;27;20469;-72
2022/02/02 16:12:41;;;;;;;4.35;1.60;;;;;;;5.25;100.00;99381.16;5137658;27;20043;-71
2022/02/02 16:15:18;;;;;;;3.75;1.70;;;;;;;5.21;100.00;99379.56;5137534;27;20043;-70
2022/02/02 16:18:07;;;;;;;5.07;1.83;;;;;;;5.17;100.00;99366.53;5137698;27;20035;-72
2022/02/02 16:32:02;;;;;;;3.40;1.70;;;;;;;5.10;100.00;99410.06;5137148;27;20480;-71
2022/02/02 16:34:55;;;;;;;6.10;1.80;;;;;;;5.03;100.00;99435.13;5137084;27;20043;-72
2022/02/02 16:37:27;;;;;;;6.93;1.80;;;;;;;5.03;100.00;99429.84;5137583;27;20100;-71
2022/02/02 16:39:59;;;;;;;2.13;1.20;;;;;;;4.97;100.00;99435.41;5137010;27;20043;-72
2022/02/02 16:45:15;;;;;;;3.70;1.23;;;;;;;4.91;100.00;99441.00;5136893;27;20088;-72
2022/02/02 16:47:44;;;;;;;4.05;1.35;;;;;;;4.93;100.00;99436.53;5136849;27;20055;-71
2022/02/02 16:50:21;;;;;;;4.50;1.70;;;;;;;4.91;100.00;99451.56;5136420;27;20156;-71
2022/02/02 16:52:54;;;;;;;4.43;1.50;;;;;;;4.90;100.00;99444.56;5137148;27;20045;-71
2022/02/02 16:55:33;;;;;;;4.03;1.80;;;;;;;4.85;100.00;99441.31;5136764;27;20039;-71
2022/02/02 16:58:14;;;;;;;6.07;1.60;;;;;;;4.83;100.00;99444.06;5136199;27;20035;-71
2022/02/02 17:31:51;;;;;;;4.90;1.80;;;;;;;4.67;100.00;99538.19;5136012;27;20396;-72
2022/02/02 17:34:25;;;;;;;4.45;1.83;;;;;;;4.71;100.00;99546.81;5135725;27;20179;-71
2022/02/02 17:37:02;;;;;;;5.93;1.73;;;;;;;4.60;100.00;99561.38;5136105;27;20043;-72
2022/02/02 17:39:39;;;;;;;3.95;1.50;;;;;;;4.65;100.00;99570.88;5135658;27;20511;-72
2022/02/02 17:42:54;;;;;;;4.43;1.65;;;;;;;4.64;100.00;99575.31;5135496;27;20061;-72
2022/02/02 17:45:41;;;;;;;;;;;;;;;4.66;100.00;99564.69;5136090;27;20447;-71
2022/02/02 18:19:09;;;;;;;3.47;1.52;;;;;;;4.66;100.00;99617.50;5135090;27;20043;-72
2022/02/02 18:21:40;;;;;;;8.65;2.13;;;;;;;4.57;100.00;99617.00;5134997;27;20047;-71
2022/02/02 18:24:14;;;;;;;5.72;1.55;;;;;;;4.60;100.00;99616.84;5135038;27;20042;-71
2022/02/02 18:26:48;;;;;;;4.95;1.80;;;;;;;4.69;100.00;99620.84;5135125;27;20497;-71
2022/02/02 18:29:22;;;;;;;6.22;1.83;;;;;;;4.71;100.00;99626.06;5134983;27;20088;-71
2022/02/02 18:32:07;;;;;;;7.45;2.33;;;;;;;4.72;100.00;99627.78;5135156;27;20175;-71
2022/02/02 18:34:42;;;;;;;6.43;2.20;;;;;;;4.72;100.00;99638.34;5134880;27;20063;-71
2022/02/02 18:43:35;;;;;;;6.65;2.08;;;;;;;4.80;100.00;99642.34;5134688;27;19919;-72
2022/02/02 18:49:28;;;;;;;3.30;1.60;;;;;;;4.75;100.00;99656.72;5091262;28;20048;-72
2022/02/02 18:52:35;;;;;;;6.57;2.10;;;;;;;4.77;100.00;99649.56;5132803;27;20096;-71
2022/02/02 18:55:11;;;;;;;9.65;2.15;;;;;;;4.73;100.00;99669.13;5134505;27;20384;-72
2022/02/02 18:57:51;;;;;;;8.45;2.17;;;;;;;4.79;100.00;99663.56;5134198;27;20450;-71
2022/02/02 19:00:35;;;;;;;7.15;1.92;;;;;;;4.81;100.00;99669.63;5134415;27;20072;-71
2022/02/02 19:03:29;;;;;;;7.13;2.08;;;;;;;4.73;100.00;99684.97;5134178;27;20544;-71
2022/02/02 19:06:22;;;;;;;7.35;2.70;;;;;;;4.75;100.00;99683.13;5134319;27;20035;-71
2022/02/02 19:31:36;;;;;;;4.40;1.48;;;;;;;4.67;100.00;99696.69;5129776;28;20055;-72
2022/02/02 19:40:08;;;;;;;4.50;1.63;;;;;;;4.56;100.00;99691.03;5116497;28;20051;-72